createdAt,value
2019-01-03T00:00:43.528Z,0.00
2019-01-03T00:01:43.504Z,0.00
2019-01-03T00:02:43.512Z,0.00
2019-01-03T00:03:43.518Z,0.00
2019-01-03T00:04:43.468Z,0.00
2019-01-03T00:05:43.472Z,0.00
2019-01-03T00:06:43.446Z,0.00
2019-01-03T00:07:43.441Z,0.00
2019-01-03T00:08:43.428Z,0.00
2019-01-03T00:09:43.471Z,0.00
2019-01-03T00:10:43.413Z,0.00
2019-01-03T00:11:43.397Z,0.00
2019-01-03T00:12:43.412Z,0.00
2019-01-03T00:13:43.371Z,0.00
2019-01-03T00:14:43.357Z,0.00
2019-01-03T00:15:43.399Z,0.00
2019-01-03T00:16:43.334Z,0.00
2019-01-03T00:17:43.325Z,0.00
2019-01-03T00:18:43.318Z,0.00
2019-01-03T00:19:43.301Z,0.00
2019-01-03T00:20:43.319Z,0.00
2019-01-03T00:21:43.297Z,0.00
2019-01-03T00:22:43.270Z,0.00
2019-01-03T00:23:43.263Z,0.00
2019-01-03T00:24:43.253Z,0.00
2019-01-03T00:25:43.258Z,0.00
2019-01-03T00:26:43.271Z,0.00
2019-01-03T00:27:43.217Z,0.00
2019-01-03T00:28:43.208Z,0.00
2019-01-03T00:29:43.195Z,0.00
2019-01-03T00:30:43.194Z,0.00
2019-01-03T00:31:43.229Z,0.00
2019-01-03T00:32:43.153Z,0.00
2019-01-03T00:33:43.155Z,0.00
2019-01-03T00:34:43.136Z,0.00
2019-01-03T00:35:43.162Z,0.00
2019-01-03T00:36:43.121Z,0.00
2019-01-03T00:37:43.123Z,0.00
2019-01-03T00:38:43.116Z,0.00
2019-01-03T00:39:43.088Z,0.00
2019-01-03T00:40:43.080Z,0.00
2019-01-03T00:41:43.065Z,0.00
2019-01-03T00:42:43.058Z,0.00
2019-01-03T00:43:43.042Z,0.00
2019-01-03T00:44:43.023Z,0.00
2019-01-03T00:45:43.044Z,0.00
2019-01-03T00:46:43.040Z,0.00
2019-01-03T00:47:43.000Z,0.00
2019-01-03T00:48:42.997Z,0.00
2019-01-03T00:49:43.011Z,0.00
2019-01-03T00:50:42.950Z,0.00
2019-01-03T00:51:42.955Z,0.00
2019-01-03T00:52:42.982Z,0.00
2019-01-03T00:53:42.921Z,0.00
2019-01-03T00:54:42.923Z,0.00
2019-01-03T00:55:42.904Z,0.00
2019-01-03T00:56:42.895Z,0.00
2019-01-03T00:57:42.880Z,0.00
2019-01-03T00:58:42.900Z,0.00
2019-01-03T00:59:42.851Z,0.00
2019-01-03T01:00:42.859Z,0.00
2019-01-03T01:01:42.847Z,0.00
2019-01-03T01:02:42.839Z,0.00
2019-01-03T01:03:42.823Z,0.00
2019-01-03T01:04:42.809Z,0.00
2019-01-03T01:05:42.786Z,0.00
2019-01-03T01:06:42.809Z,0.00
2019-01-03T01:07:42.772Z,0.00
2019-01-03T01:08:42.755Z,0.00
2019-01-03T01:09:42.760Z,0.00
2019-01-03T01:10:42.730Z,0.00
2019-01-03T01:11:42.765Z,0.00
2019-01-03T01:12:42.724Z,0.00
2019-01-03T01:13:42.697Z,0.00
2019-01-03T01:14:42.685Z,0.00
2019-01-03T01:15:42.686Z,0.00
2019-01-03T01:16:42.692Z,0.00
2019-01-03T01:17:42.650Z,0.00
2019-01-03T01:18:42.656Z,0.00
2019-01-03T01:19:42.646Z,0.00
2019-01-03T01:20:42.615Z,0.00
2019-01-03T01:21:42.635Z,0.00
2019-01-03T01:22:42.607Z,0.00
2019-01-03T01:23:42.581Z,0.00
2019-01-03T01:24:42.592Z,0.00
2019-01-03T01:25:42.564Z,0.00
2019-01-03T01:26:42.550Z,0.00
2019-01-03T01:27:42.558Z,0.00
2019-01-03T01:28:42.527Z,0.00
2019-01-03T01:29:42.531Z,0.00
2019-01-03T01:30:42.502Z,0.00
2019-01-03T01:31:42.512Z,0.00
2019-01-03T01:32:42.500Z,0.00
2019-01-03T01:33:42.474Z,0.00
2019-01-03T01:34:42.468Z,0.00
2019-01-03T01:35:42.481Z,0.00
2019-01-03T01:36:42.438Z,0.00
2019-01-03T01:37:42.434Z,0.00
2019-01-03T01:38:42.414Z,0.00
2019-01-03T01:39:42.406Z,0.00
2019-01-03T01:40:42.389Z,0.00
2019-01-03T01:41:42.437Z,0.00
2019-01-03T01:42:42.380Z,0.00
2019-01-03T01:43:42.366Z,0.00
2019-01-03T01:44:42.359Z,0.00
2019-01-03T01:45:42.332Z,0.00
2019-01-03T01:46:42.323Z,0.00
2019-01-03T01:47:42.356Z,0.00
2019-01-03T01:48:42.308Z,0.00
2019-01-03T01:49:42.297Z,0.00
2019-01-03T01:50:42.290Z,0.00
2019-01-03T01:51:42.273Z,0.00
2019-01-03T01:52:42.285Z,0.00
2019-01-03T01:53:42.246Z,0.00
2019-01-03T01:54:42.245Z,0.00
2019-01-03T01:55:42.237Z,0.00
2019-01-03T01:56:42.236Z,0.00
2019-01-03T01:57:42.229Z,0.00
2019-01-03T01:58:42.192Z,0.00
2019-01-03T01:59:42.184Z,0.00
2019-01-03T02:00:42.178Z,0.00
2019-01-03T02:01:42.163Z,0.00
2019-01-03T02:02:42.161Z,0.00
2019-01-03T02:03:42.144Z,0.00
2019-01-03T02:04:42.122Z,0.00
2019-01-03T02:05:42.119Z,0.00
2019-01-03T02:06:42.104Z,0.00
2019-01-03T02:07:42.149Z,0.00
2019-01-03T02:08:42.082Z,0.00
2019-01-03T02:09:42.085Z,0.00
2019-01-03T02:10:42.054Z,0.00
2019-01-03T02:11:42.048Z,0.00
2019-01-03T02:12:42.090Z,0.00
2019-01-03T02:13:42.062Z,0.00
2019-01-03T02:14:42.008Z,0.00
2019-01-03T02:15:42.027Z,0.00
2019-01-03T02:16:41.997Z,0.00
2019-01-03T02:17:41.996Z,0.00
2019-01-03T02:18:41.980Z,0.00
2019-01-03T02:19:41.989Z,0.00
2019-01-03T02:20:41.957Z,0.00
2019-01-03T02:21:41.941Z,0.00
2019-01-03T02:22:41.946Z,0.00
2019-01-03T02:23:41.941Z,0.00
2019-01-03T02:24:41.918Z,0.00
2019-01-03T02:25:41.898Z,0.00
2019-01-03T02:26:41.913Z,0.00
2019-01-03T02:27:41.868Z,0.00
2019-01-03T02:28:41.880Z,0.00
2019-01-03T02:29:41.866Z,0.00
2019-01-03T02:30:41.833Z,0.00
2019-01-03T02:31:41.827Z,0.00
2019-01-03T02:32:41.818Z,0.00
2019-01-03T02:33:41.817Z,0.00
2019-01-03T02:34:41.802Z,0.00
2019-01-03T02:35:41.785Z,0.00
2019-01-03T02:36:41.776Z,0.00
2019-01-03T02:37:41.755Z,0.00
2019-01-03T02:38:41.764Z,0.00
2019-01-03T02:39:41.754Z,0.00
2019-01-03T02:40:41.726Z,0.00
2019-01-03T02:41:41.713Z,0.00
2019-01-03T02:42:41.704Z,0.00
2019-01-03T02:43:41.738Z,0.00
2019-01-03T02:44:41.684Z,0.00
2019-01-03T02:45:41.690Z,0.00
2019-01-03T02:46:41.659Z,0.00
2019-01-03T02:47:41.661Z,0.00
2019-01-03T02:48:41.655Z,0.00
2019-01-03T02:49:41.623Z,0.00
2019-01-03T02:50:41.621Z,0.00
2019-01-03T02:51:41.646Z,0.00
2019-01-03T02:52:41.584Z,0.00
2019-01-03T02:53:41.647Z,0.00
2019-01-03T02:54:41.562Z,0.00
2019-01-03T02:55:41.557Z,0.00
2019-01-03T02:56:41.548Z,0.00
2019-01-03T02:57:41.531Z,0.00
2019-01-03T02:58:41.547Z,0.00
2019-01-03T02:59:41.516Z,0.00
2019-01-03T03:00:41.521Z,0.00
2019-01-03T03:01:41.494Z,0.00
2019-01-03T03:02:41.494Z,0.00
2019-01-03T03:03:41.486Z,0.00
2019-01-03T03:04:41.463Z,0.00
2019-01-03T03:05:41.468Z,0.00
2019-01-03T03:06:41.451Z,0.00
2019-01-03T03:07:41.449Z,0.00
2019-01-03T03:08:41.406Z,0.00
2019-01-03T03:09:41.438Z,0.00
2019-01-03T03:10:41.394Z,0.00
2019-01-03T03:11:41.388Z,0.00
2019-01-03T03:12:41.402Z,0.00
2019-01-03T03:13:41.350Z,0.00
2019-01-03T03:14:41.397Z,0.00
2019-01-03T03:15:41.328Z,0.00
2019-01-03T03:16:41.395Z,0.00
2019-01-03T03:17:41.346Z,0.00
2019-01-03T03:18:41.303Z,0.00
2019-01-03T03:19:41.302Z,0.00
2019-01-03T03:20:41.272Z,0.00
2019-01-03T03:21:41.262Z,0.00
2019-01-03T03:22:41.264Z,0.00
2019-01-03T03:23:41.247Z,0.00
2019-01-03T03:24:41.277Z,0.00
2019-01-03T03:25:41.222Z,0.00
2019-01-03T03:26:41.329Z,0.00
2019-01-03T03:27:41.192Z,0.00
2019-01-03T03:28:41.197Z,0.00
2019-01-03T03:29:41.219Z,0.00
2019-01-03T03:30:41.163Z,0.00
2019-01-03T03:31:41.151Z,0.00
2019-01-03T03:32:41.146Z,0.00
2019-01-03T03:33:41.140Z,0.00
2019-01-03T03:34:41.191Z,0.00
2019-01-03T03:35:41.107Z,0.00
2019-01-03T03:36:41.099Z,0.00
2019-01-03T03:37:41.082Z,0.00
2019-01-03T03:38:41.074Z,0.00
2019-01-03T03:39:41.108Z,0.00
2019-01-03T03:40:41.093Z,0.00
2019-01-03T03:41:41.050Z,0.00
2019-01-03T03:42:41.031Z,0.00
2019-01-03T03:43:41.018Z,0.00
2019-01-03T03:44:41.023Z,0.00
2019-01-03T03:45:40.998Z,0.00
2019-01-03T03:46:41.019Z,0.00
2019-01-03T03:47:40.984Z,0.00
2019-01-03T03:48:41.053Z,0.00
2019-01-03T03:49:40.971Z,0.00
2019-01-03T03:50:40.943Z,0.00
2019-01-03T03:51:40.925Z,0.00
2019-01-03T03:52:40.924Z,0.00
2019-01-03T03:53:40.904Z,0.00
2019-01-03T03:54:40.996Z,0.00
2019-01-03T03:55:40.880Z,0.00
2019-01-03T03:56:40.872Z,0.00
2019-01-03T03:57:40.858Z,0.00
2019-01-03T03:58:40.845Z,0.00
2019-01-03T03:59:40.849Z,0.00
2019-01-03T04:00:40.823Z,0.00
2019-01-03T04:01:40.905Z,0.00
2019-01-03T04:02:40.822Z,0.00
2019-01-03T04:03:40.877Z,0.00
2019-01-03T04:04:40.798Z,0.00
2019-01-03T04:05:40.771Z,0.00
2019-01-03T04:06:40.828Z,0.00
2019-01-03T04:07:40.752Z,0.00
2019-01-03T04:08:40.752Z,0.00
2019-01-03T04:09:40.743Z,0.00
2019-01-03T04:10:40.727Z,0.00
2019-01-03T04:11:40.715Z,0.00
2019-01-03T04:12:40.710Z,0.00
2019-01-03T04:13:40.681Z,0.00
2019-01-03T04:14:40.750Z,0.00
2019-01-03T04:15:40.681Z,0.00
2019-01-03T04:16:40.652Z,0.00
2019-01-03T04:17:40.655Z,0.00
2019-01-03T04:18:40.623Z,0.00
2019-01-03T04:19:40.617Z,0.00
2019-01-03T04:20:40.671Z,0.00
2019-01-03T04:21:40.592Z,0.00
2019-01-03T04:22:40.588Z,0.00
2019-01-03T04:23:40.583Z,0.00
2019-01-03T04:24:40.593Z,0.00
2019-01-03T04:25:40.581Z,0.00
2019-01-03T04:26:40.549Z,0.00
2019-01-03T04:27:40.536Z,0.00
2019-01-03T04:28:40.555Z,0.00
2019-01-03T04:29:40.506Z,0.00
2019-01-03T04:30:40.521Z,0.00
2019-01-03T04:31:40.525Z,0.00
2019-01-03T04:32:40.518Z,0.00
2019-01-03T04:33:40.460Z,0.00
2019-01-03T04:34:40.483Z,0.00
2019-01-03T04:35:40.451Z,0.00
2019-01-03T04:36:40.425Z,0.00
2019-01-03T04:37:40.569Z,0.00
2019-01-03T04:38:40.428Z,0.00
2019-01-03T04:39:40.397Z,0.00
2019-01-03T04:40:40.409Z,0.00
2019-01-03T04:41:40.377Z,0.00
2019-01-03T04:42:40.363Z,0.00
2019-01-03T04:43:40.367Z,0.00
2019-01-03T04:44:40.337Z,0.00
2019-01-03T04:45:40.334Z,0.00
2019-01-03T04:46:40.328Z,0.00
2019-01-03T04:47:40.302Z,0.00
2019-01-03T04:48:40.293Z,0.00
2019-01-03T04:49:40.283Z,0.00
2019-01-03T04:50:40.307Z,0.00
2019-01-03T04:51:40.266Z,0.00
2019-01-03T04:52:40.254Z,0.00
2019-01-03T04:53:40.234Z,0.00
2019-01-03T04:54:40.231Z,0.00
2019-01-03T04:55:40.227Z,0.00
2019-01-03T04:56:40.212Z,0.00
2019-01-03T04:57:40.202Z,0.00
2019-01-03T04:58:40.200Z,0.00
2019-01-03T04:59:40.164Z,0.00
2019-01-03T05:00:40.153Z,0.00
2019-01-03T05:01:40.205Z,0.00
2019-01-03T05:02:40.130Z,0.00
2019-01-03T05:03:40.118Z,0.00
2019-01-03T05:04:40.112Z,0.00
2019-01-03T05:05:40.098Z,0.00
2019-01-03T05:06:40.106Z,0.00
2019-01-03T05:07:40.088Z,0.00
2019-01-03T05:08:40.063Z,0.00
2019-01-03T05:09:40.063Z,0.00
2019-01-03T05:10:40.048Z,0.00
2019-01-03T05:11:40.083Z,0.00
2019-01-03T05:12:40.018Z,0.00
2019-01-03T05:13:40.018Z,0.00
2019-01-03T05:14:40.007Z,0.00
2019-01-03T05:15:39.985Z,0.00
2019-01-03T05:16:40.002Z,0.00
2019-01-03T05:17:39.963Z,0.00
2019-01-03T05:18:39.951Z,0.00
2019-01-03T05:19:39.941Z,0.00
2019-01-03T05:20:39.929Z,0.00
2019-01-03T05:21:40.390Z,0.00
2019-01-03T05:22:39.928Z,0.00
2019-01-03T05:23:39.900Z,0.00
2019-01-03T05:24:39.905Z,0.00
2019-01-03T05:25:39.876Z,0.00
2019-01-03T05:26:39.872Z,0.00
2019-01-03T05:27:39.851Z,0.00
2019-01-03T05:28:39.843Z,0.00
2019-01-03T05:29:39.836Z,0.00
2019-01-03T05:30:39.832Z,0.00
2019-01-03T05:31:39.839Z,0.00
2019-01-03T05:32:39.797Z,0.00
2019-01-03T05:33:39.797Z,0.00
2019-01-03T05:34:39.779Z,0.00
2019-01-03T05:35:39.762Z,0.00
2019-01-03T05:36:39.783Z,0.00
2019-01-03T05:37:39.743Z,0.00
2019-01-03T05:38:39.728Z,0.00
2019-01-03T05:39:39.718Z,0.00
2019-01-03T05:40:39.705Z,0.00
2019-01-03T05:41:39.714Z,0.00
2019-01-03T05:42:39.686Z,0.00
2019-01-03T05:43:39.690Z,0.00
2019-01-03T05:44:39.665Z,0.00
2019-01-03T05:45:39.658Z,0.00
2019-01-03T05:46:39.670Z,0.00
2019-01-03T05:47:39.654Z,0.00
2019-01-03T05:48:39.621Z,0.00
2019-01-03T05:49:39.607Z,0.00
2019-01-03T05:50:39.609Z,0.00
2019-01-03T05:51:39.595Z,0.00
2019-01-03T05:52:39.577Z,0.00
2019-01-03T05:53:39.585Z,0.00
2019-01-03T05:54:39.558Z,0.00
2019-01-03T05:55:39.550Z,0.00
2019-01-03T05:56:39.561Z,0.00
2019-01-03T05:57:39.532Z,0.00
2019-01-03T05:58:39.515Z,0.00
2019-01-03T05:59:39.504Z,0.00
2019-01-03T06:00:39.490Z,0.00
2019-01-03T06:01:39.482Z,0.00
2019-01-03T06:02:39.475Z,0.00
2019-01-03T06:03:39.457Z,0.00
2019-01-03T06:04:39.450Z,0.00
2019-01-03T06:05:39.435Z,0.00
2019-01-03T06:06:39.431Z,0.00
2019-01-03T06:07:39.428Z,0.00
2019-01-03T06:08:39.404Z,0.00
2019-01-03T06:09:39.388Z,0.00
2019-01-03T06:10:39.404Z,0.00
2019-01-03T06:11:39.361Z,0.00
2019-01-03T06:12:39.372Z,0.00
2019-01-03T06:13:39.340Z,0.00
2019-01-03T06:14:39.329Z,0.00
2019-01-03T06:15:39.340Z,0.00
2019-01-03T06:16:39.305Z,0.00
2019-01-03T06:17:39.305Z,0.00
2019-01-03T06:18:39.279Z,0.00
2019-01-03T06:19:39.269Z,0.00
2019-01-03T06:20:39.287Z,0.00
2019-01-03T06:21:39.256Z,0.00
2019-01-03T06:22:39.263Z,0.00
2019-01-03T06:23:39.240Z,0.00
2019-01-03T06:24:39.213Z,0.00
2019-01-03T06:25:39.225Z,0.00
2019-01-03T06:26:39.203Z,0.00
2019-01-03T06:27:39.200Z,0.00
2019-01-03T06:28:39.193Z,0.00
2019-01-03T06:29:39.159Z,0.00
2019-01-03T06:30:39.179Z,0.00
2019-01-03T06:31:39.138Z,0.00
2019-01-03T06:32:39.154Z,0.00
2019-01-03T06:33:39.140Z,0.00
2019-01-03T06:34:39.116Z,0.00
2019-01-03T06:35:39.098Z,0.00
2019-01-03T06:36:39.080Z,0.00
2019-01-03T06:37:39.070Z,0.00
2019-01-03T06:38:39.072Z,0.00
2019-01-03T06:39:39.062Z,0.00
2019-01-03T06:40:39.046Z,0.00
2019-01-03T06:41:39.031Z,0.00
2019-01-03T06:42:39.028Z,0.00
2019-01-03T06:43:39.051Z,0.00
2019-01-03T06:44:39.016Z,0.00
2019-01-03T06:45:39.026Z,0.00
2019-01-03T06:46:38.977Z,0.00
2019-01-03T06:47:38.965Z,0.00
2019-01-03T06:48:38.960Z,0.00
2019-01-03T06:49:38.938Z,0.00
2019-01-03T06:50:38.935Z,0.00
2019-01-03T06:51:38.924Z,0.00
2019-01-03T06:52:38.911Z,0.00
2019-01-03T06:53:38.913Z,0.00
2019-01-03T06:54:38.887Z,0.00
2019-01-03T06:55:38.886Z,0.00
2019-01-03T06:56:38.877Z,0.00
2019-01-03T06:57:38.845Z,0.00
2019-01-03T06:58:38.845Z,0.00
2019-01-03T06:59:38.828Z,0.00
2019-01-03T07:00:38.812Z,0.00
2019-01-03T07:01:38.817Z,0.00
2019-01-03T07:02:38.793Z,0.00
2019-01-03T07:03:38.793Z,0.00
2019-01-03T07:04:38.773Z,0.00
2019-01-03T07:05:38.768Z,0.00
2019-01-03T07:06:38.745Z,0.00
2019-01-03T07:07:38.738Z,0.00
2019-01-03T07:08:38.774Z,0.00
2019-01-03T07:09:38.715Z,0.00
2019-01-03T07:10:38.710Z,0.00
2019-01-03T07:11:38.693Z,0.00
2019-01-03T07:12:38.684Z,0.00
2019-01-03T07:13:38.683Z,0.00
2019-01-03T07:14:38.681Z,0.00
2019-01-03T07:15:38.642Z,0.00
2019-01-03T07:16:38.631Z,0.00
2019-01-03T07:17:38.629Z,0.00
2019-01-03T07:18:38.645Z,0.00
2019-01-03T07:19:38.638Z,0.00
2019-01-03T07:20:38.589Z,0.00
2019-01-03T07:21:38.586Z,0.00
2019-01-03T07:22:38.574Z,0.00
2019-01-03T07:23:38.567Z,0.00
2019-01-03T07:24:38.575Z,0.00
2019-01-03T07:25:38.535Z,0.00
2019-01-03T07:26:38.528Z,0.00
2019-01-03T07:27:38.518Z,0.00
2019-01-03T07:28:38.510Z,0.00
2019-01-03T07:29:38.537Z,0.00
2019-01-03T07:30:38.500Z,0.00
2019-01-03T07:31:38.469Z,0.00
2019-01-03T07:32:38.466Z,0.00
2019-01-03T07:33:38.456Z,0.00
2019-01-03T07:34:38.449Z,0.00
2019-01-03T07:35:38.427Z,0.00
2019-01-03T07:36:38.425Z,0.00
2019-01-03T07:37:38.403Z,0.00
2019-01-03T07:38:38.404Z,0.00
2019-01-03T07:39:38.389Z,0.00
2019-01-03T07:40:38.378Z,0.00
2019-01-03T07:41:38.362Z,4.00
2019-01-03T07:42:38.369Z,4.00
2019-01-03T07:43:38.347Z,4.00
2019-01-03T07:44:38.339Z,4.00
2019-01-03T07:45:38.324Z,4.00
2019-01-03T07:46:38.323Z,4.00
2019-01-03T07:47:38.300Z,4.00
2019-01-03T07:48:38.296Z,4.00
2019-01-03T07:49:38.286Z,0.00
2019-01-03T07:50:38.265Z,0.00
2019-01-03T07:51:38.245Z,4.00
2019-01-03T07:52:38.246Z,4.00
2019-01-03T07:53:38.250Z,4.00
2019-01-03T07:54:38.222Z,4.00
2019-01-03T07:55:38.222Z,4.00
2019-01-03T07:56:38.199Z,4.00
2019-01-03T07:57:38.176Z,4.00
2019-01-03T07:58:38.172Z,4.00
2019-01-03T07:59:38.214Z,4.00
2019-01-03T08:00:38.155Z,4.00
2019-01-03T08:01:38.127Z,0.00
2019-01-03T08:02:38.123Z,4.00
2019-01-03T08:03:38.108Z,0.00
2019-01-03T08:04:38.122Z,4.00
2019-01-03T08:05:38.113Z,4.00
2019-01-03T08:06:38.080Z,4.00
2019-01-03T08:07:38.077Z,4.00
2019-01-03T08:08:38.117Z,4.00
2019-01-03T08:09:38.093Z,4.00
2019-01-03T08:10:38.106Z,4.00
2019-01-03T08:11:38.019Z,4.00
2019-01-03T08:12:38.025Z,4.00
2019-01-03T08:13:37.996Z,4.00
2019-01-03T08:14:37.994Z,4.00
2019-01-03T08:15:37.992Z,8.00
2019-01-03T08:16:37.966Z,8.00
2019-01-03T08:17:37.952Z,8.00
2019-01-03T08:18:37.982Z,8.00
2019-01-03T08:19:37.928Z,8.00
2019-01-03T08:20:37.933Z,8.00
2019-01-03T08:21:37.913Z,8.00
2019-01-03T08:22:37.898Z,8.00
2019-01-03T08:23:37.927Z,8.00
2019-01-03T08:24:37.874Z,8.00
2019-01-03T08:25:37.879Z,12.00
2019-01-03T08:26:37.873Z,8.00
2019-01-03T08:27:37.846Z,12.00
2019-01-03T08:28:37.860Z,12.00
2019-01-03T08:29:37.820Z,12.00
2019-01-03T08:30:37.818Z,12.00
2019-01-03T08:31:37.825Z,12.00
2019-01-03T08:32:37.803Z,12.00
2019-01-03T08:33:37.773Z,12.00
2019-01-03T08:34:37.766Z,12.00
2019-01-03T08:35:37.766Z,12.00
2019-01-03T08:36:37.752Z,8.00
2019-01-03T08:37:37.744Z,12.00
2019-01-03T08:38:37.757Z,8.00
2019-01-03T08:39:38.411Z,8.00
2019-01-03T08:40:37.721Z,8.00
2019-01-03T08:41:37.685Z,8.00
2019-01-03T08:42:37.675Z,8.00
2019-01-03T08:43:37.676Z,8.00
2019-01-03T08:44:37.650Z,8.00
2019-01-03T08:45:37.670Z,8.00
2019-01-03T08:46:37.649Z,8.00
2019-01-03T08:47:37.652Z,8.00
2019-01-03T08:48:37.610Z,8.00
2019-01-03T08:49:37.599Z,8.00
2019-01-03T08:50:37.618Z,8.00
2019-01-03T08:51:37.597Z,8.00
2019-01-03T08:52:37.569Z,8.00
2019-01-03T08:53:37.565Z,8.00
2019-01-03T08:54:37.545Z,8.00
2019-01-03T08:55:37.528Z,8.00
2019-01-03T08:56:37.534Z,8.00
2019-01-03T08:57:37.506Z,8.00
2019-01-03T08:58:37.500Z,8.00
2019-01-03T08:59:37.486Z,12.00
2019-01-03T09:00:37.557Z,12.00
2019-01-03T09:01:37.479Z,12.00
2019-01-03T09:02:37.450Z,12.00
2019-01-03T09:03:37.440Z,12.00
2019-01-03T09:04:37.433Z,12.00
2019-01-03T09:05:37.417Z,8.00
2019-01-03T09:06:37.418Z,12.00
2019-01-03T09:07:37.419Z,16.00
2019-01-03T09:08:37.401Z,16.00
2019-01-03T09:09:37.380Z,20.00
2019-01-03T09:10:37.369Z,16.00
2019-01-03T09:11:37.372Z,20.00
2019-01-03T09:12:37.365Z,16.00
2019-01-03T09:13:37.329Z,20.00
2019-01-03T09:14:37.338Z,20.00
2019-01-03T09:15:37.306Z,16.00
2019-01-03T09:16:37.313Z,16.00
2019-01-03T09:17:37.292Z,16.00
2019-01-03T09:18:37.279Z,16.00
2019-01-03T09:19:37.285Z,20.00
2019-01-03T09:20:37.260Z,16.00
2019-01-03T09:21:37.255Z,20.00
2019-01-03T09:22:37.232Z,24.00
2019-01-03T09:23:37.230Z,24.00
2019-01-03T09:24:37.216Z,24.00
2019-01-03T09:25:37.206Z,20.00
2019-01-03T09:26:37.210Z,16.00
2019-01-03T09:27:37.189Z,16.00
2019-01-03T09:28:37.171Z,16.00
2019-01-03T09:29:37.151Z,16.00
2019-01-03T09:30:37.140Z,16.00
2019-01-03T09:31:37.141Z,16.00
2019-01-03T09:32:37.122Z,16.00
2019-01-03T09:33:37.121Z,16.00
2019-01-03T09:34:37.112Z,16.00
2019-01-03T09:35:37.083Z,20.00
2019-01-03T09:36:37.087Z,16.00
2019-01-03T09:37:37.085Z,20.00
2019-01-03T09:38:37.111Z,20.00
2019-01-03T09:39:37.039Z,20.00
2019-01-03T09:40:37.042Z,20.00
2019-01-03T09:41:37.025Z,20.00
2019-01-03T09:42:37.001Z,16.00
2019-01-03T09:43:37.014Z,20.00
2019-01-03T09:44:36.988Z,20.00
2019-01-03T09:45:43.953Z,28.00
2019-01-03T09:46:37.970Z,32.00
2019-01-03T09:47:36.948Z,32.00
2019-01-03T09:48:36.936Z,36.00
2019-01-03T09:49:36.924Z,40.00
2019-01-03T09:50:36.925Z,40.00
2019-01-03T09:51:37.088Z,40.00
2019-01-03T09:52:36.919Z,36.00
2019-01-03T09:53:36.890Z,36.00
2019-01-03T09:54:36.868Z,32.00
2019-01-03T09:55:36.867Z,32.00
2019-01-03T09:56:36.857Z,36.00
2019-01-03T09:57:36.894Z,40.00
2019-01-03T09:58:36.822Z,40.00
2019-01-03T09:59:36.818Z,36.00
2019-01-03T10:00:36.881Z,40.00
2019-01-03T10:01:36.794Z,40.00
2019-01-03T10:02:36.815Z,36.00
2019-01-03T10:03:36.808Z,44.00
2019-01-03T10:04:36.756Z,44.00
2019-01-03T10:05:36.759Z,48.00
2019-01-03T10:06:36.784Z,56.00
2019-01-03T10:07:36.744Z,56.00
2019-01-03T10:08:36.877Z,48.00
2019-01-03T10:09:36.701Z,44.00
2019-01-03T10:10:36.740Z,44.00
2019-01-03T10:11:36.677Z,44.00
2019-01-03T10:12:36.734Z,40.00
2019-01-03T10:13:36.659Z,40.00
2019-01-03T10:14:36.646Z,40.00
2019-01-03T10:15:36.652Z,36.00
2019-01-03T10:16:36.623Z,36.00
2019-01-03T10:17:36.625Z,36.00
2019-01-03T10:18:36.600Z,44.00
2019-01-03T10:19:36.589Z,40.00
2019-01-03T10:20:36.577Z,40.00
2019-01-03T10:21:36.569Z,44.00
2019-01-03T10:22:36.586Z,36.00
2019-01-03T10:23:36.564Z,32.00
2019-01-03T10:24:36.572Z,32.00
2019-01-03T10:25:36.526Z,32.00
2019-01-03T10:26:36.585Z,36.00
2019-01-03T10:27:36.514Z,48.00
2019-01-03T10:28:36.493Z,36.00
2019-01-03T10:29:36.498Z,36.00
2019-01-03T10:30:36.475Z,32.00
2019-01-03T10:31:36.461Z,28.00
2019-01-03T10:32:36.456Z,32.00
2019-01-03T10:33:36.436Z,28.00
2019-01-03T10:34:36.446Z,36.00
2019-01-03T10:35:36.437Z,44.00
2019-01-03T10:36:36.405Z,52.00
2019-01-03T10:37:36.402Z,76.00
2019-01-03T10:38:36.376Z,144.00
2019-01-03T10:39:36.367Z,640.00
2019-01-03T10:40:36.395Z,292.00
2019-01-03T10:41:36.475Z,208.00
2019-01-03T10:42:36.420Z,232.00
2019-01-03T10:43:36.324Z,64.00
2019-01-03T10:44:36.309Z,48.00
2019-01-03T10:45:36.296Z,40.00
2019-01-03T10:46:36.303Z,36.00
2019-01-03T10:47:36.333Z,32.00
2019-01-03T10:48:36.419Z,32.00
2019-01-03T10:49:36.295Z,28.00
2019-01-03T10:50:36.252Z,20.00
2019-01-03T10:51:36.233Z,16.00
2019-01-03T10:52:36.236Z,12.00
2019-01-03T10:53:36.211Z,12.00
2019-01-03T10:54:36.205Z,12.00
2019-01-03T10:55:36.223Z,16.00
2019-01-03T10:56:36.180Z,20.00
2019-01-03T10:57:36.179Z,24.00
2019-01-03T10:58:36.160Z,32.00
2019-01-03T10:59:36.145Z,32.00
2019-01-03T11:00:36.145Z,32.00
2019-01-03T11:01:36.180Z,24.00
2019-01-03T11:02:36.127Z,24.00
2019-01-03T11:03:36.097Z,20.00
2019-01-03T11:04:36.094Z,16.00
2019-01-03T11:05:36.078Z,16.00
2019-01-03T11:06:36.067Z,16.00
2019-01-03T11:07:36.102Z,12.00
2019-01-03T11:08:36.043Z,12.00
2019-01-03T11:09:36.052Z,16.00
2019-01-03T11:10:36.018Z,16.00
2019-01-03T11:11:36.010Z,16.00
2019-01-03T11:12:35.995Z,16.00
2019-01-03T11:13:36.041Z,16.00
2019-01-03T11:14:35.974Z,8.00
2019-01-03T11:15:35.962Z,12.00
2019-01-03T11:16:35.967Z,12.00
2019-01-03T11:17:35.938Z,12.00
2019-01-03T11:18:35.950Z,12.00
2019-01-03T11:19:35.963Z,12.00
2019-01-03T11:20:35.910Z,12.00
2019-01-03T11:21:35.898Z,16.00
2019-01-03T11:22:35.886Z,20.00
2019-01-03T11:23:35.885Z,20.00
2019-01-03T11:24:35.862Z,20.00
2019-01-03T11:25:35.851Z,20.00
2019-01-03T11:26:35.844Z,24.00
2019-01-03T11:27:35.850Z,24.00
2019-01-03T11:28:35.831Z,24.00
2019-01-03T11:29:35.809Z,24.00
2019-01-03T11:30:35.794Z,24.00
2019-01-03T11:31:35.793Z,20.00
2019-01-03T11:32:35.787Z,20.00
2019-01-03T11:33:35.801Z,24.00
2019-01-03T11:34:35.751Z,24.00
2019-01-03T11:35:35.766Z,28.00
2019-01-03T11:36:35.726Z,24.00
2019-01-03T11:37:36.580Z,24.00
2019-01-03T11:38:35.724Z,24.00
2019-01-03T11:39:35.693Z,24.00
2019-01-03T11:40:35.683Z,28.00
2019-01-03T11:41:35.708Z,28.00
2019-01-03T11:42:35.659Z,24.00
2019-01-03T11:43:35.662Z,24.00
2019-01-03T11:44:35.682Z,24.00
2019-01-03T11:45:35.627Z,24.00
2019-01-03T11:46:35.619Z,20.00
2019-01-03T11:47:35.614Z,20.00
2019-01-03T11:48:35.607Z,20.00
2019-01-03T11:49:35.626Z,20.00
2019-01-03T11:50:35.576Z,20.00
2019-01-03T11:51:35.569Z,24.00
2019-01-03T11:52:35.554Z,28.00
2019-01-03T11:53:35.565Z,32.00
2019-01-03T11:54:35.531Z,32.00
2019-01-03T11:55:35.595Z,36.00
2019-01-03T11:56:35.542Z,36.00
2019-01-03T11:57:35.493Z,32.00
2019-01-03T11:58:35.504Z,32.00
2019-01-03T11:59:35.473Z,20.00
2019-01-03T12:00:35.460Z,20.00
2019-01-03T12:01:35.455Z,24.00
2019-01-03T12:02:35.550Z,24.00
2019-01-03T12:03:35.458Z,28.00
2019-01-03T12:04:35.429Z,36.00
2019-01-03T12:05:35.409Z,32.00
2019-01-03T12:06:35.397Z,32.00
2019-01-03T12:07:35.385Z,28.00
2019-01-03T12:08:35.457Z,24.00
2019-01-03T12:09:35.372Z,24.00
2019-01-03T12:10:35.353Z,24.00
2019-01-03T12:11:35.348Z,28.00
2019-01-03T12:12:35.337Z,24.00
2019-01-03T12:13:35.316Z,24.00
2019-01-03T12:14:35.347Z,28.00
2019-01-03T12:15:35.295Z,28.00
2019-01-03T12:16:35.281Z,20.00
2019-01-03T12:17:35.509Z,20.00
2019-01-03T12:18:35.298Z,24.00
2019-01-03T12:19:35.259Z,24.00
2019-01-03T12:20:35.237Z,24.00
2019-01-03T12:21:35.262Z,28.00
2019-01-03T12:22:35.230Z,28.00
2019-01-03T12:23:35.219Z,28.00
2019-01-03T12:24:35.242Z,28.00
2019-01-03T12:25:35.183Z,28.00
2019-01-03T12:26:35.178Z,32.00
2019-01-03T12:27:35.159Z,28.00
2019-01-03T12:28:35.155Z,16.00
2019-01-03T12:29:35.183Z,16.00
2019-01-03T12:30:35.125Z,16.00
2019-01-03T12:31:35.117Z,16.00
2019-01-03T12:32:35.107Z,20.00
2019-01-03T12:33:35.098Z,20.00
2019-01-03T12:34:35.093Z,24.00
2019-01-03T12:35:35.105Z,20.00
2019-01-03T12:36:35.059Z,20.00
2019-01-03T12:37:35.052Z,20.00
2019-01-03T12:38:35.043Z,20.00
2019-01-03T12:39:35.042Z,20.00
2019-01-03T12:40:35.027Z,20.00
2019-01-03T12:41:35.061Z,20.00
2019-01-03T12:42:34.994Z,20.00
2019-01-03T12:43:34.984Z,20.00
2019-01-03T12:44:34.994Z,24.00
2019-01-03T12:45:34.968Z,28.00
2019-01-03T12:46:34.953Z,32.00
2019-01-03T12:47:34.952Z,32.00
2019-01-03T12:48:34.928Z,28.00
2019-01-03T12:49:34.922Z,32.00
2019-01-03T12:50:34.902Z,24.00
2019-01-03T12:51:34.895Z,24.00
2019-01-03T12:52:34.890Z,24.00
2019-01-03T12:53:34.899Z,20.00
2019-01-03T12:54:34.862Z,20.00
2019-01-03T12:55:34.856Z,20.00
2019-01-03T12:56:34.833Z,16.00
2019-01-03T12:57:34.820Z,12.00
2019-01-03T12:58:34.812Z,12.00
2019-01-03T12:59:34.811Z,12.00
2019-01-03T13:00:34.809Z,16.00
2019-01-03T13:01:34.800Z,20.00
2019-01-03T13:02:34.767Z,24.00
2019-01-03T13:03:34.776Z,24.00
2019-01-03T13:04:34.776Z,20.00
2019-01-03T13:05:34.745Z,24.00
2019-01-03T13:06:34.741Z,20.00
2019-01-03T13:07:34.718Z,24.00
2019-01-03T13:08:34.700Z,24.00
2019-01-03T13:09:35.067Z,32.00